Subpeak Weather

  • Time Avg. Air Temp Dew Point Avg. Rel Humidity Avg. 2 Min Wind Speed Max Gust Velocity MGV Time MGV Direction Avg. Spot Wind Velocity
    2018-02-18 09:25:00-23° C-26° C77%30 km/h50 km/h09:22:00N35 km/h
    08:25:00-23° C-26° C77%29 km/h47 km/h08:21:00N24 km/h
    07:25:00-23° C-25° C77%37 km/h57 km/h07:23:00N45 km/h
    06:25:00-22° C-25° C77%32 km/h53 km/h06:21:00N38 km/h
    05:25:00-22° C-25° C77%41 km/h58 km/h05:23:00N37 km/h
    04:25:00-21° C-24° C77%36 km/h48 km/h04:24:00N31 km/h
    03:25:00-21° C-24° C78%32 km/h39 km/h03:23:00N27 km/h
    02:25:00-21° C-23° C78%34 km/h40 km/h02:25:00NE34 km/h
    01:25:00-20° C-23° C78%36 km/h52 km/h01:22:00N35 km/h
    00:25:00-20° C-23° C79%31 km/h49 km/h00:22:00N35 km/h
    23:30:00-19° C-22° C79%35 km/h49 km/h23:30:00N32 km/h
    22:30:00-19° C-21° C80%45 km/h51 km/h22:29:00N44 km/h
    21:30:00-18° C-21° C81%34 km/h38 km/h21:30:00N29 km/h
    20:30:00-18° C-20° C81%36 km/h42 km/h20:29:00N29 km/h
    19:30:00-17° C-19° C82%33 km/h51 km/h19:26:00N36 km/h
    18:30:00-16° C-19° C82%22 km/h43 km/h18:28:00NW32 km/h
    17:30:00-16° C-18° C82%32 km/h43 km/h17:28:00NE31 km/h
    16:30:00-16° C-18° C83%46 km/h54 km/h16:26:00N43 km/h
    15:30:00-16° C-18° C83%32 km/h36 km/h15:28:00N32 km/h
    14:30:00-16° C-18° C83%34 km/h41 km/h14:30:00N34 km/h
    13:30:00-16° C-18° C83%26 km/h31 km/h13:30:00NE24 km/h
    12:30:00-15° C-17° C83%17 km/h32 km/h12:26:00E20 km/h
    11:30:00-15° C-17° C83%25 km/h39 km/h11:29:00NE19 km/h
    10:30:00-15° C-18° C83%23 km/h39 km/h10:30:00E21 km/h
  • Time Avg. Air Temp Dew Point Avg. Rel Humidity Avg. 2 Min Wind Speed Max Gust Velocity MGV Time MGV Direction Avg. Spot Wind Velocity
    2018-02-18 09:25:00-23° C-26° C77%30 km/h50 km/h09:22:00N35 km/h
    09:20:00-23° C-26° C77%34 km/h58 km/h09:16:00N37 km/h
    09:15:00-23° C-26° C77%27 km/h44 km/h09:12:00N29 km/h
    09:10:00-23° C-26° C77%39 km/h56 km/h09:10:00N37 km/h
    09:05:00-23° C-26° C77%26 km/h50 km/h09:03:00N36 km/h
    09:00:00-23° C-26° C77%23 km/h46 km/h08:56:00N27 km/h
    08:55:00-23° C-26° C77%25 km/h47 km/h08:53:00N22 km/h
    08:50:00-23° C-26° C77%42 km/h57 km/h08:47:00N36 km/h
    08:45:00-23° C-26° C77%44 km/h57 km/h08:41:00N48 km/h
    08:40:00-23° C-26° C77%43 km/h67 km/h08:38:00N49 km/h
    08:35:00-23° C-26° C77%46 km/h62 km/h08:35:00NE34 km/h
    08:30:00-23° C-26° C77%34 km/h55 km/h08:30:00N34 km/h
    08:25:00-23° C-26° C77%29 km/h47 km/h08:21:00N24 km/h

Explore More

Get Revelstoke news, offers, and events via email.